Wroughton, United Kingdom
Current Conditions -  °F | °C
As of 7:58 AM on Friday 19 Dec 2014 (Local Time) from EGVA Reporting Station
Overcast Overcast  
Wind Chill: 43°   Ceiling: 3400
Heat Index: 47°   Visibility: 6mi
Dew Point: 41°   Wind: 8mph
Humidity: 78%   Direction: 300°WNW
Pressure: 29.89"   Gusts: NA
Location:  51.52°N, 1.8°W
Report Text: EGVA 190758Z AUTO 30007KT 9999 BKN034 OVC042 08/05 A2989 RMK AO2 SLP126 T00840048
Loading
Personal Weather Stations






























Interactive Weather Map New forecast layout! Learn more

10-Day Weather Forecast

Advertisements
Track Severe Weather on mobile